Time;durP1;ratioP1;P1;durP2;ratioP2;P2;SDS_P1;SDS_P2;PMS_P1;PMS_P2;Temp;Humidity;BMP_temperature;BMP_pressure;BME280_temperature;BME280_humidity;BME280_pressure;Samples;Min_cycle;Max_cycle;Signal;HPM_P1;HPM_P2
2022/02/07 00:01:58;;;;;;;0.60;0.30;;;;;;;5.78;100.00;95905.53;4879163;29;20085;-84
2022/02/07 00:04:29;;;;;;;2.60;0.40;;;;;;;5.72;100.00;95906.06;4886856;29;20049;-84
2022/02/07 00:06:56;;;;;;;2.47;0.50;;;;;;;5.78;100.00;95918.97;4880488;29;20084;-83
2022/02/07 00:09:22;;;;;;;1.38;0.40;;;;;;;5.75;100.00;95926.88;4877441;29;20105;-82
2022/02/07 00:11:49;;;;;;;1.25;0.52;;;;;;;5.79;100.00;95923.22;4883608;29;20080;-83
2022/02/07 00:14:16;;;;;;;0.82;0.40;;;;;;;5.76;100.00;95923.88;4882091;29;20089;-84
2022/02/07 00:16:44;;;;;;;0.85;0.40;;;;;;;5.75;100.00;95919.63;4884945;29;20053;-83
2022/02/07 00:19:17;;;;;;;2.35;0.60;;;;;;;5.97;100.00;95929.28;4882782;29;20055;-83
2022/02/07 00:21:46;;;;;;;1.23;0.50;;;;;;;5.75;100.00;95948.38;4883872;29;20083;-83
2022/02/07 00:24:12;;;;;;;0.50;0.30;;;;;;;5.76;100.00;95948.03;4902397;29;20068;-83
2022/02/07 00:26:39;;;;;;;1.00;0.30;;;;;;;5.82;100.00;95956.69;4903452;29;20123;-83
2022/02/07 00:29:05;;;;;;;1.27;0.40;;;;;;;5.80;100.00;95966.97;4881736;29;20056;-82
2022/02/07 00:31:33;;;;;;;2.65;0.35;;;;;;;5.83;100.00;95953.69;4881521;29;20056;-83
2022/02/07 00:34:00;;;;;;;1.45;0.60;;;;;;;5.84;100.00;95966.00;4880242;29;20057;-82
2022/02/07 00:36:28;;;;;;;0.93;0.40;;;;;;;5.82;100.00;95976.28;4897549;29;20056;-82
2022/02/07 00:39:00;;;;;;;1.98;0.40;;;;;;;5.81;100.00;95960.50;4898426;29;20059;-83
2022/02/07 00:41:37;;;;;;;0.70;0.40;;;;;;;5.73;100.00;95947.91;4879859;29;20057;-83
2022/02/07 00:44:11;;;;;;;0.73;0.40;;;;;;;5.71;100.00;95967.00;4896881;29;20075;-82
2022/02/07 00:46:57;;;;;;;0.50;0.40;;;;;;;5.66;100.00;95980.63;4886693;29;20558;-83
2022/02/07 00:49:27;;;;;;;1.30;0.47;;;;;;;5.75;100.00;95965.28;4878791;29;20104;-83
2022/02/07 00:51:54;;;;;;;4.65;0.70;;;;;;;5.63;100.00;95967.84;4897161;29;20052;-82
2022/02/07 00:54:20;;;;;;;0.95;0.40;;;;;;;5.53;100.00;95950.22;4879786;29;20524;-84
2022/02/07 00:56:48;;;;;;;1.33;0.43;;;;;;;5.58;100.00;95984.13;4896501;29;20508;-83
2022/02/07 00:59:15;;;;;;;2.72;0.60;;;;;;;5.66;100.00;95959.16;4897256;29;20056;-81
2022/02/07 01:01:42;;;;;;;2.60;0.50;;;;;;;5.72;100.00;95967.81;4879350;29;20089;-84
2022/02/07 01:04:11;;;;;;;1.75;0.60;;;;;;;5.68;100.00;95984.56;4900508;29;20053;-82
2022/02/07 01:06:38;;;;;;;1.30;0.50;;;;;;;5.62;100.00;95990.44;4901690;29;20049;-82
2022/02/07 01:09:21;;;;;;;2.88;0.50;;;;;;;5.62;100.00;96017.28;4887081;29;20131;-84
2022/02/07 01:12:08;;;;;;;;;;;;;;;;;;;;;
2022/02/07 01:14:42;;;;;;;2.00;0.30;;;;;;;4.14;100.00;96033.06;4905027;29;20057;-83
2022/02/07 01:49:39;;;;;;;5.22;0.70;;;;;;;3.37;100.00;96107.72;4904826;29;20733;-86
2022/02/07 01:54:44;;;;;;;4.07;0.50;;;;;;;3.43;100.00;96111.81;4903004;29;20131;-82
2022/02/07 01:57:13;;;;;;;3.55;0.40;;;;;;;3.74;100.00;96127.91;4902523;29;20077;-85
2022/02/07 01:59:40;;;;;;;3.10;0.75;;;;;;;3.73;100.00;96134.34;4888430;29;20075;-84
2022/02/07 02:02:07;;;;;;;3.25;0.55;;;;;;;3.81;100.00;96143.50;4906515;29;20117;-84
2022/02/07 02:04:34;;;;;;;2.75;0.55;;;;;;;3.85;100.00;96123.03;4909450;29;20053;-82
2022/02/07 02:07:02;;;;;;;3.08;0.70;;;;;;;3.99;100.00;96147.84;4887765;29;20060;-84
2022/02/07 02:09:30;;;;;;;4.65;1.00;;;;;;;3.79;100.00;96159.88;4905224;29;20044;-83
2022/02/07 02:11:58;;;;;;;5.68;0.90;;;;;;;3.79;100.00;96187.41;4884190;29;20743;-84
2022/02/07 02:38:27;;;;;;;3.47;0.40;;;;;;;2.71;100.00;96271.44;4898795;29;20048;-82
2022/02/07 02:46:26;;;;;;;7.72;0.80;;;;;;;2.69;100.00;96267.50;4897921;29;20457;-83
2022/02/07 02:49:00;;;;;;;3.85;0.98;;;;;;;2.65;100.00;96279.88;4898011;29;20573;-83
2022/02/07 02:51:30;;;;;;;8.07;1.35;;;;;;;2.72;100.00;96299.75;4904059;29;20057;-85
2022/02/07 02:53:57;;;;;;;4.47;0.90;;;;;;;2.73;100.00;96313.91;4898194;29;20052;-83
2022/02/07 02:56:24;;;;;;;7.20;1.27;;;;;;;2.57;100.00;96315.28;4896477;29;20080;-83
2022/02/07 02:58:51;;;;;;;4.65;0.60;;;;;;;2.65;100.00;96336.75;4896500;29;20698;-81
2022/02/07 03:01:17;;;;;;;8.85;0.50;;;;;;;2.68;100.00;96335.38;4897807;29;20130;-85
2022/02/07 03:03:44;;;;;;;4.28;0.40;;;;;;;2.73;100.00;96345.97;4896030;29;20116;-83
2022/02/07 03:06:10;;;;;;;2.55;0.22;;;;;;;2.74;100.00;96360.91;4896726;29;20085;-83
2022/02/07 03:08:38;;;;;;;2.17;0.40;;;;;;;2.54;100.00;96378.09;4896152;29;20494;-82
2022/02/07 03:11:12;;;;;;;3.10;0.40;;;;;;;2.63;100.00;96386.22;4880400;29;20049;-83
2022/02/07 03:18:59;;;;;;;5.32;0.50;;;;;;;2.69;100.00;96398.38;4897771;29;20063;-84
2022/02/07 03:21:27;;;;;;;3.17;0.50;;;;;;;2.67;100.00;96401.38;4880844;29;20056;-82
2022/02/07 03:23:54;;;;;;;2.42;0.55;;;;;;;2.83;100.00;96423.25;4897333;29;20383;-84
2022/02/07 03:26:24;;;;;;;4.60;0.40;;;;;;;2.77;100.00;96425.22;4898983;29;20063;-85
2022/02/07 03:28:51;;;;;;;3.28;0.40;;;;;;;2.79;100.00;96448.97;4881275;29;20399;-83
2022/02/07 03:31:19;;;;;;;3.50;0.60;;;;;;;2.87;100.00;96458.97;4899068;29;20056;-82
2022/02/07 03:33:47;;;;;;;2.75;0.60;;;;;;;2.86;100.00;96463.56;4903821;29;20080;-83
2022/02/07 03:36:15;;;;;;;3.40;0.47;;;;;;;2.82;100.00;96465.22;4879540;29;20053;-82
2022/02/07 03:38:41;;;;;;;4.78;0.73;;;;;;;2.89;100.00;96475.53;4899917;29;20053;-83
2022/02/07 03:41:08;;;;;;;2.00;0.30;;;;;;;2.67;100.00;96475.38;4898097;29;20076;-85
2022/02/07 03:43:35;;;;;;;1.90;0.40;;;;;;;2.89;100.00;96492.34;4882155;29;20120;-84
2022/02/07 03:46:02;;;;;;;3.03;0.35;;;;;;;2.92;100.00;96494.44;4900364;29;20060;-84
2022/02/07 03:48:30;;;;;;;2.42;0.28;;;;;;;2.65;100.00;96462.31;4899146;29;20056;-83
2022/02/07 03:50:57;;;;;;;2.05;0.30;;;;;;;2.81;100.00;96505.59;4883067;29;20048;-82
2022/02/07 03:53:25;;;;;;;4.72;0.40;;;;;;;2.81;100.00;96518.97;4886079;29;20081;-80
2022/02/07 03:55:51;;;;;;;3.63;0.45;;;;;;;2.95;100.00;96511.78;4900369;29;20066;-84
2022/02/07 03:58:21;;;;;;;4.07;0.32;;;;;;;2.91;100.00;96534.84;4881412;29;20048;-82
2022/02/07 04:00:48;;;;;;;4.47;0.32;;;;;;;2.91;100.00;96540.19;4899452;29;20053;-82
2022/02/07 04:03:16;;;;;;;1.85;0.32;;;;;;;2.94;100.00;96550.28;4900647;29;20056;-81
2022/02/07 04:05:48;;;;;;;2.08;0.35;;;;;;;2.87;100.00;96545.31;4900886;29;20056;-82
2022/02/07 04:08:17;;;;;;;4.53;0.60;;;;;;;2.90;100.00;96557.28;4882944;29;20138;-81
2022/02/07 04:10:56;;;;;;;1.50;0.40;;;;;;;2.65;100.00;96522.97;4884161;29;20037;-81
2022/02/07 04:13:32;;;;;;;5.50;0.40;;;;;;;2.94;100.00;96563.66;4887384;29;20072;-81
2022/02/07 04:16:01;;;;;;;3.58;0.20;;;;;;;2.79;100.00;96563.88;4889365;29;20063;-83
2022/02/07 04:18:33;;;;;;;2.55;0.40;;;;;;;2.79;100.00;96574.56;4881444;29;20112;-82
2022/02/07 04:21:01;;;;;;;5.13;0.50;;;;;;;3.04;100.00;96585.66;4897219;29;20056;-82
2022/02/07 04:23:28;;;;;;;3.22;0.35;;;;;;;2.89;100.00;96585.88;4901622;29;20063;-82
2022/02/07 04:25:55;;;;;;;4.45;0.43;;;;;;;2.72;100.00;96606.19;4884714;29;20068;-82
2022/02/07 04:28:22;;;;;;;5.55;0.60;;;;;;;2.64;100.00;96606.84;4900359;29;20059;-83
2022/02/07 04:30:49;;;;;;;1.58;0.40;;;;;;;2.78;100.00;96605.06;4899256;29;20112;-84
2022/02/07 04:33:16;;;;;;;5.30;0.50;;;;;;;2.72;100.00;96609.69;4900957;29;20045;-82
2022/02/07 04:35:42;;;;;;;7.70;0.85;;;;;;;2.75;100.00;96637.69;4901427;29;20133;-81
2022/02/07 04:38:09;;;;;;;7.53;0.85;;;;;;;2.89;100.00;96623.31;4903022;29;20088;-82
2022/02/07 04:40:35;;;;;;;4.30;1.05;;;;;;;2.77;100.00;96619.50;4881576;29;20108;-82
2022/02/07 04:43:03;;;;;;;8.38;0.70;;;;;;;2.76;100.00;96644.63;4882203;29;20056;-82
2022/02/07 04:45:41;;;;;;;5.30;0.50;;;;;;;2.87;100.00;96641.50;4900926;29;20057;-81
2022/02/07 04:48:30;;;;;;;3.53;0.47;;;;;;;2.78;100.00;96653.16;4900964;29;20089;-81
2022/02/07 04:58:59;;;;;;;6.57;0.70;;;;;;;2.80;100.00;96673.16;4901626;29;20128;-80
2022/02/07 05:01:42;;;;;;;5.25;0.80;;;;;;;2.72;100.00;96681.00;4883012;29;20056;-81
2022/02/07 05:04:20;;;;;;;6.07;0.75;;;;;;;2.76;100.00;96677.47;4898183;29;20077;-81
2022/02/07 05:15:05;;;;;;;3.72;0.70;;;;;;;2.95;100.00;96720.25;4909259;29;20413;-82
2022/02/07 05:17:35;;;;;;;5.93;1.00;;;;;;;2.91;100.00;96729.94;4909588;29;20056;-80
2022/02/07 05:20:04;;;;;;;9.40;0.90;;;;;;;3.11;100.00;96740.34;4907962;29;20057;-80
2022/02/07 05:22:32;;;;;;;5.32;0.75;;;;;;;3.08;100.00;96731.03;4909104;29;20048;-83
2022/02/07 05:25:00;;;;;;;2.88;0.60;;;;;;;3.13;100.00;96764.91;4892701;29;20068;-81
2022/02/07 05:27:27;;;;;;;4.63;0.60;;;;;;;3.19;100.00;96758.41;4904142;29;20633;-84
2022/02/07 05:29:53;;;;;;;4.10;0.70;;;;;;;2.99;100.00;96740.00;4890625;29;20040;-84
2022/02/07 05:32:20;;;;;;;4.57;0.75;;;;;;;2.94;100.00;96748.84;4906307;29;20049;-81
2022/02/07 05:34:47;;;;;;;8.05;1.27;;;;;;;2.98;100.00;96770.47;4890224;29;20155;-82
2022/02/07 05:37:15;;;;;;;4.93;0.90;;;;;;;2.95;100.00;96746.97;4904131;29;20056;-81
2022/02/07 05:39:45;;;;;;;8.32;0.93;;;;;;;3.07;100.00;96772.19;4901574;29;20056;-82
2022/02/07 05:42:12;;;;;;;6.72;1.40;;;;;;;3.09;100.00;96779.94;4888418;29;20116;-82
2022/02/07 05:44:39;;;;;;;7.50;1.20;;;;;;;3.06;100.00;96785.88;4885604;29;20085;-83
2022/02/07 05:47:06;;;;;;;2.85;0.70;;;;;;;3.24;100.00;96792.31;4883791;29;20065;-83
2022/02/07 05:49:33;;;;;;;5.53;0.70;;;;;;;2.99;100.00;96806.81;4904118;29;20048;-83
2022/02/07 05:52:00;;;;;;;4.47;0.70;;;;;;;3.13;100.00;96813.84;4902539;29;20040;-83
2022/02/07 05:54:26;;;;;;;6.32;0.80;;;;;;;3.13;100.00;96821.88;4900801;29;20049;-84
2022/02/07 05:56:53;;;;;;;4.03;0.80;;;;;;;3.13;100.00;96823.72;4883655;29;20055;-80
2022/02/07 05:59:20;;;;;;;7.80;0.70;;;;;;;3.11;100.00;96825.91;4883098;29;20073;-80
2022/02/07 06:01:46;;;;;;;4.50;0.80;;;;;;;3.14;100.00;96838.72;4897778;29;20048;-83
2022/02/07 06:04:13;;;;;;;6.35;0.80;;;;;;;3.19;100.00;96845.84;4898464;29;20112;-82
2022/02/07 06:06:39;;;;;;;6.88;0.90;;;;;;;3.01;100.00;96826.03;4879985;29;20116;-82
2022/02/07 06:09:07;;;;;;;5.10;0.50;;;;;;;3.28;100.00;96857.53;4895956;29;20072;-80
2022/02/07 06:11:34;;;;;;;9.52;0.93;;;;;;;3.31;100.00;96875.66;4897443;29;20120;-81
2022/02/07 06:14:01;;;;;;;8.27;0.90;;;;;;;3.19;100.00;96880.63;4896957;29;20088;-80
2022/02/07 06:16:31;;;;;;;8.90;0.98;;;;;;;3.33;100.00;96890.31;4898367;29;20122;-81
2022/02/07 06:18:58;;;;;;;8.02;1.10;;;;;;;3.37;100.00;96886.03;4897097;29;20099;-80
2022/02/07 06:21:27;;;;;;;6.55;0.80;;;;;;;3.21;100.00;96899.84;4900027;29;20052;-84
2022/02/07 06:23:55;;;;;;;7.15;0.90;;;;;;;3.30;100.00;96916.88;4902725;29;20053;-79
2022/02/07 06:26:22;;;;;;;12.90;1.40;;;;;;;3.12;100.00;96903.16;4902230;29;20553;-84
2022/02/07 06:28:48;;;;;;;8.25;1.35;;;;;;;3.22;100.00;96931.66;4883652;29;20053;-84
2022/02/07 06:31:15;;;;;;;8.02;1.00;;;;;;;3.20;100.00;96915.09;4873796;29;20053;-84
2022/02/07 06:33:41;;;;;;;6.15;0.90;;;;;;;3.35;100.00;96920.28;4877151;29;20144;-84
2022/02/07 06:36:08;;;;;;;6.35;0.95;;;;;;;3.35;100.00;96930.19;4893202;29;20167;-82
2022/02/07 06:38:34;;;;;;;6.75;0.77;;;;;;;3.21;100.00;96945.31;4877772;29;20089;-82
2022/02/07 06:41:01;;;;;;;8.63;1.50;;;;;;;3.24;100.00;96948.22;4894329;29;20061;-82
2022/02/07 06:43:28;;;;;;;5.70;0.52;;;;;;;3.21;100.00;96943.44;4896023;29;20071;-84
2022/02/07 06:45:54;;;;;;;4.43;0.75;;;;;;;3.33;100.00;96959.88;4897712;29;20123;-84
2022/02/07 06:48:22;;;;;;;4.80;0.75;;;;;;;3.34;100.00;96949.97;4879607;29;20103;-84
2022/02/07 06:50:49;;;;;;;6.32;1.13;;;;;;;3.42;100.00;96958.19;4878237;29;20064;-83
2022/02/07 06:56:05;;;;;;;4.82;0.75;;;;;;;3.29;100.00;96972.22;4893942;29;20056;-82
2022/02/07 06:58:32;;;;;;;6.63;1.45;;;;;;;3.46;100.00;96991.28;4880236;29;20137;-82
2022/02/07 07:01:01;;;;;;;5.50;1.08;;;;;;;3.32;100.00;96989.59;4900217;29;20265;-81
2022/02/07 07:03:35;;;;;;;4.70;0.88;;;;;;;3.29;100.00;96998.19;4881366;29;20289;-81
2022/02/07 07:06:02;;;;;;;5.13;0.98;;;;;;;3.43;100.00;97007.91;4903907;29;20053;-84
2022/02/07 07:08:28;;;;;;;4.10;1.30;;;;;;;3.20;100.00;96994.53;4881160;29;20048;-84
2022/02/07 07:10:59;;;;;;;6.90;1.35;;;;;;;3.29;100.00;97012.34;4902111;29;20049;-83
2022/02/07 07:13:38;;;;;;;6.22;0.80;;;;;;;3.39;100.00;97016.78;4902400;29;20053;-84
2022/02/07 07:18:47;;;;;;;4.38;0.93;;;;;;;3.28;100.00;97031.38;4903051;29;20079;-83
2022/02/07 07:21:14;;;;;;;5.38;1.00;;;;;;;3.31;100.00;97023.56;4878450;29;20064;-83
2022/02/07 07:23:41;;;;;;;4.00;0.90;;;;;;;3.26;100.00;97025.47;4879007;29;20067;-83
2022/02/07 07:26:08;;;;;;;6.50;1.00;;;;;;;3.27;100.00;97014.53;4895456;29;20059;-81
2022/02/07 07:28:36;;;;;;;3.30;0.90;;;;;;;3.31;100.00;97041.47;4896289;29;20056;-82
2022/02/07 07:31:10;;;;;;;3.58;0.90;;;;;;;3.07;100.00;97030.78;4885863;29;20640;-82
2022/02/07 07:33:38;;;;;;;4.43;0.73;;;;;;;3.12;100.00;97042.19;4881001;29;20517;-82
2022/02/07 07:36:05;;;;;;;5.53;1.02;;;;;;;3.04;100.00;97050.84;4880291;29;20506;-82
2022/02/07 07:38:32;;;;;;;4.03;0.85;;;;;;;2.87;100.00;97052.31;4879324;29;20132;-83
2022/02/07 07:40:58;;;;;;;4.90;1.02;;;;;;;2.98;100.00;97077.88;4882097;29;20100;-85
2022/02/07 07:43:25;;;;;;;8.25;1.00;;;;;;;2.88;100.00;97077.97;4897322;29;20103;-83
2022/02/07 07:46:01;;;;;;;3.63;0.88;;;;;;;2.69;100.00;97093.88;4880284;29;20060;-84
2022/02/07 07:48:28;;;;;;;6.85;1.17;;;;;;;2.82;100.00;97100.44;4897088;29;20052;-82
2022/02/07 08:03:55;;;;;;;13.40;1.58;;;;;;;2.75;100.00;97126.69;4897013;29;20068;-81
2022/02/07 08:06:29;;;;;;;4.10;1.40;;;;;;;2.73;100.00;97131.53;4896019;29;20139;-81
2022/02/07 08:11:30;;;;;;;8.88;1.73;;;;;;;2.73;100.00;97136.88;4896522;29;20049;-83
2022/02/07 08:14:00;;;;;;;6.47;1.63;;;;;;;2.73;100.00;97152.91;4880452;29;20423;-81
2022/02/07 08:16:28;;;;;;;9.27;1.55;;;;;;;2.89;100.00;97162.44;4896234;29;20494;-84
2022/02/07 08:18:58;;;;;;;8.77;1.52;;;;;;;2.70;100.00;97182.84;4879563;29;20049;-84
2022/02/07 08:21:24;;;;;;;12.18;1.80;;;;;;;3.01;100.00;97185.06;4879867;29;20080;-85
2022/02/07 08:23:51;;;;;;;8.38;2.00;;;;;;;2.91;100.00;97195.03;4906504;29;20060;-83
2022/02/07 08:26:20;;;;;;;7.57;1.42;;;;;;;2.64;100.00;97183.94;4888130;29;20104;-83
2022/02/07 08:28:47;;;;;;;11.75;1.77;;;;;;;2.80;100.00;97220.19;4880398;29;20537;-84
2022/02/07 08:31:14;;;;;;;8.95;2.05;;;;;;;2.89;100.00;97229.25;4894728;29;20541;-82
2022/02/07 08:33:40;;;;;;;9.90;2.75;;;;;;;2.88;100.00;97211.63;4877441;29;20499;-83
2022/02/07 08:36:07;;;;;;;9.25;2.70;;;;;;;2.93;100.00;97233.78;4879409;29;20052;-81
2022/02/07 08:38:34;;;;;;;13.90;2.78;;;;;;;2.92;100.00;97245.53;4895008;29;20116;-82
2022/02/07 08:41:01;;;;;;;17.88;3.00;;;;;;;2.97;100.00;97237.47;4894183;29;20068;-82
2022/02/07 08:43:28;;;;;;;10.70;3.30;;;;;;;3.17;100.00;97253.41;4878475;29;20124;-83
2022/02/07 08:46:00;;;;;;;9.77;2.65;;;;;;;3.09;100.00;97263.91;4896367;29;20083;-83
2022/02/07 08:48:27;;;;;;;13.10;3.17;;;;;;;3.05;100.00;97263.66;4896589;29;20084;-85
2022/02/07 08:50:55;;;;;;;9.15;2.40;;;;;;;3.17;100.00;97246.47;4896792;29;20052;-84
2022/02/07 08:53:24;;;;;;;15.73;2.88;;;;;;;3.38;100.00;97258.66;4880268;29;20045;-85
2022/02/07 08:55:52;;;;;;;9.15;2.15;;;;;;;3.54;100.00;97276.19;4897871;29;20118;-83
2022/02/07 08:58:23;;;;;;;13.93;2.60;;;;;;;3.39;100.00;97289.66;4897917;29;20068;-83
2022/02/07 09:11:11;;;;;;;10.23;1.70;;;;;;;3.73;100.00;97306.56;4897664;29;20115;-79
2022/02/07 09:13:41;;;;;;;16.58;2.20;;;;;;;4.02;100.00;97306.63;4883493;29;20049;-79
2022/02/07 09:18:38;;;;;;;15.82;2.10;;;;;;;5.38;100.00;97308.59;4904231;29;20052;-79
2022/02/07 09:21:08;;;;;;;12.15;2.13;;;;;;;4.86;100.00;97314.06;4911842;29;20056;-79
2022/02/07 09:23:37;;;;;;;14.55;1.98;;;;;;;5.30;100.00;97324.53;4912198;29;20245;-77
2022/02/07 09:26:04;;;;;;;14.10;2.28;;;;;;;5.67;100.00;97311.13;4911987;29;20067;-81
2022/02/07 09:28:32;;;;;;;14.35;2.35;;;;;;;6.00;100.00;97320.88;4905176;29;20077;-80
2022/02/07 09:30:59;;;;;;;11.32;1.67;;;;;;;6.75;100.00;97321.44;4887583;29;20052;-81
2022/02/07 09:33:27;;;;;;;10.60;1.60;;;;;;;5.78;100.00;97323.31;4885520;29;20088;-80
2022/02/07 09:35:59;;;;;;;7.72;1.25;;;;;;;5.26;100.00;97332.38;4888911;29;20052;-78
2022/02/07 09:38:27;;;;;;;11.35;1.70;;;;;;;5.56;100.00;97342.69;4903847;29;20045;-78
2022/02/07 09:40:54;;;;;;;10.70;1.48;;;;;;;6.68;100.00;97357.91;4905807;29;20120;-79
2022/02/07 09:43:25;;;;;;;12.02;1.30;;;;;;;6.50;100.00;97342.63;4887990;29;20048;-80
2022/02/07 09:45:54;;;;;;;16.30;2.03;;;;;;;5.45;100.00;97348.47;4900303;29;20052;-80
2022/02/07 09:48:20;;;;;;;14.48;1.67;;;;;;;5.06;100.00;97361.34;4883185;29;20112;-82
2022/02/07 09:50:49;;;;;;;16.13;1.63;;;;;;;5.10;100.00;97370.41;4887046;29;20417;-82
2022/02/07 09:53:17;;;;;;;15.65;1.83;;;;;;;4.80;100.00;97382.25;4901276;29;20084;-83
2022/02/07 09:55:44;;;;;;;10.65;1.60;;;;;;;4.99;100.00;97370.50;4904851;29;20149;-82
2022/02/07 09:58:13;;;;;;;7.95;1.52;;;;;;;4.69;100.00;97386.13;4886904;29;20063;-82
2022/02/07 10:00:40;;;;;;;13.05;2.08;;;;;;;4.40;100.00;97362.81;4892864;29;20056;-83
2022/02/07 10:03:26;;;;;;;9.80;1.70;;;;;;;4.23;100.00;97383.06;4909922;29;20079;-83
2022/02/07 10:06:03;;;;;;;10.95;1.20;;;;;;;4.26;100.00;97377.09;4892346;29;20502;-84
2022/02/07 10:11:19;;;;;;;12.45;1.60;;;;;;;4.43;100.00;97423.06;4897303;29;20143;-83
2022/02/07 10:14:12;;;;;;;9.27;1.95;;;;;;;4.40;100.00;97426.31;4899029;29;20056;-84
2022/02/07 10:42:11;;;;;;;17.98;3.50;;;;;;;5.34;100.00;97481.22;4899629;29;20096;-83
2022/02/07 10:47:11;;;;;;;11.20;1.75;;;;;;;5.26;100.00;97495.28;4899391;29;20410;-85
2022/02/07 10:49:57;;;;;;;15.73;1.83;;;;;;;5.39;100.00;97508.00;4882659;29;20049;-83
2022/02/07 10:52:24;;;;;;;8.75;1.48;;;;;;;5.33;100.00;97501.91;4902075;29;20057;-83
2022/02/07 10:54:51;;;;;;;13.88;1.30;;;;;;;5.43;100.00;97519.78;4897194;29;20053;-82
2022/02/07 10:57:19;;;;;;;7.50;1.48;;;;;;;5.26;100.00;97512.16;4901485;29;20112;-81
2022/02/07 10:59:47;;;;;;;11.23;1.30;;;;;;;5.41;100.00;97527.31;4897306;29;20052;-82
2022/02/07 11:05:04;;;;;;;7.75;1.35;;;;;;;5.88;100.00;97527.38;4895391;29;20135;-81
2022/02/07 11:07:33;;;;;;;10.85;1.30;;;;;;;6.70;100.00;97536.72;4896035;29;20105;-78
2022/02/07 11:10:19;;;;;;;20.45;2.10;;;;;;;7.30;100.00;97553.00;4879261;29;20566;-80
2022/02/07 11:15:38;;;;;;;7.47;1.30;;;;;;;5.97;100.00;97551.69;4891165;29;20431;-84
2022/02/07 11:18:16;;;;;;;10.27;1.38;;;;;;;5.57;100.00;97556.38;4883477;29;20128;-83
2022/02/07 11:26:27;;;;;;;12.82;1.88;;;;;;;5.84;100.00;97557.72;4900418;29;20059;-81
2022/02/07 11:28:53;;;;;;;9.70;1.33;;;;;;;5.92;100.00;97566.00;4874676;29;20175;-81
2022/02/07 11:31:29;;;;;;;10.10;1.48;;;;;;;5.59;100.00;97594.53;4895355;29;20052;-81
2022/02/07 11:34:06;;;;;;;;;;;;;;;5.63;100.00;97587.47;4878423;29;20150;-82
2022/02/07 11:36:35;;;;;;;11.80;1.67;;;;;;;5.48;100.00;97597.56;4878744;29;19942;-81
2022/02/07 11:39:12;;;;;;;10.95;2.00;;;;;;;5.46;100.00;97589.81;4894075;29;20056;-82
2022/02/07 11:41:53;;;;;;;14.75;1.90;;;;;;;5.53;100.00;97609.06;4878895;29;20129;-83
2022/02/07 11:44:28;;;;;;;12.43;2.10;;;;;;;5.39;100.00;97610.00;4897060;29;20060;-82
2022/02/07 11:47:17;;;;;;;12.82;1.60;;;;;;;5.42;100.00;97612.13;4883065;29;20060;-82
2022/02/07 11:49:48;;;;;;;14.82;2.03;;;;;;;5.60;100.00;97616.81;4881930;29;20053;-83
2022/02/07 11:52:33;;;;;;;13.68;1.73;;;;;;;5.81;100.00;97614.72;4884141;29;20056;-83
2022/02/07 11:55:05;;;;;;;13.73;2.88;;;;;;;5.99;100.00;97620.16;4903895;29;20557;-82
2022/02/07 11:57:36;;;;;;;20.48;2.70;;;;;;;6.21;100.00;97612.41;4875396;29;20139;-83
2022/02/07 12:00:15;;;;;;;17.83;2.15;;;;;;;6.09;100.00;97622.75;4876189;29;20060;-82
2022/02/07 12:02:49;;;;;;;13.95;2.20;;;;;;;6.06;100.00;97617.16;4893531;29;20060;-83
2022/02/07 12:05:21;;;;;;;18.33;2.30;;;;;;;6.63;100.00;97594.66;4879401;29;20061;-81
2022/02/07 12:08:05;;;;;;;14.30;2.13;;;;;;;6.97;100.00;97618.66;4886349;29;20056;-82
2022/02/07 12:10:41;;;;;;;14.80;2.20;;;;;;;6.87;100.00;97624.97;4897363;29;20461;-82
2022/02/07 12:13:30;;;;;;;16.25;2.10;;;;;;;6.40;100.00;97630.47;4898793;29;20044;-81
2022/02/07 12:16:03;;;;;;;19.67;2.60;;;;;;;6.09;100.00;97641.56;4905350;29;20064;-82
2022/02/07 12:18:29;;;;;;;11.77;1.58;;;;;;;6.13;100.00;97641.78;4899031;29;20064;-81
2022/02/07 12:21:25;;;;;;;12.93;1.95;;;;;;;5.99;100.00;97649.72;4897932;29;20052;-81
2022/02/07 12:23:57;;;;;;;10.02;1.75;;;;;;;5.55;100.00;97630.25;4896241;29;20048;-80
2022/02/07 12:26:26;;;;;;;11.18;1.60;;;;;;;5.40;100.00;97649.19;4897924;29;20052;-81
2022/02/07 12:29:02;;;;;;;9.40;1.95;;;;;;;5.50;100.00;97670.56;4896730;29;20119;-80
2022/02/07 12:31:29;;;;;;;10.65;1.90;;;;;;;5.28;100.00;97673.72;4896830;29;20048;-82
2022/02/07 12:34:01;;;;;;;13.50;1.98;;;;;;;4.56;100.00;97693.16;4898204;29;20055;-82
2022/02/07 12:36:34;;;;;;;17.67;1.83;;;;;;;4.83;100.00;97706.97;4901927;29;20048;-81
2022/02/07 12:39:13;;;;;;;15.02;1.88;;;;;;;4.75;100.00;97707.53;4895130;29;20084;-80
2022/02/07 12:41:41;;;;;;;14.48;2.20;;;;;;;5.27;100.00;97696.25;4878914;29;20056;-82
2022/02/07 12:44:09;;;;;;;16.58;1.92;;;;;;;5.26;100.00;97686.63;4879457;29;20123;-82
2022/02/07 12:46:40;;;;;;;16.35;2.17;;;;;;;5.68;100.00;97698.66;4893365;29;20435;-82
2022/02/07 12:49:12;;;;;;;11.00;1.92;;;;;;;6.49;100.00;97707.53;4879659;29;20057;-82
2022/02/07 12:51:42;;;;;;;15.57;2.35;;;;;;;7.48;100.00;97706.44;4897811;29;20056;-82
2022/02/07 12:54:14;;;;;;;10.38;1.83;;;;;;;8.12;100.00;97711.03;4883157;29;20071;-81
2022/02/07 12:56:41;;;;;;;10.68;1.67;;;;;;;8.01;100.00;97719.59;4893966;29;20223;-82
2022/02/07 12:59:07;;;;;;;15.25;2.20;;;;;;;8.25;100.00;97708.66;4895233;29;20060;-82
2022/02/07 13:01:35;;;;;;;17.58;2.25;;;;;;;8.16;100.00;97719.31;4899028;29;20068;-81
2022/02/07 13:04:05;;;;;;;13.75;1.90;;;;;;;7.12;100.00;97713.47;4896206;29;20108;-82
2022/02/07 13:06:35;;;;;;;14.70;2.33;;;;;;;6.28;100.00;97735.69;4897868;29;20148;-82
2022/02/07 13:09:23;;;;;;;18.60;2.45;;;;;;;6.30;100.00;97733.53;4882333;29;20132;-82
2022/02/07 13:12:01;;;;;;;21.88;2.55;;;;;;;6.55;100.00;97727.09;4879085;29;20072;-82
2022/02/07 13:14:30;;;;;;;12.77;2.38;;;;;;;6.30;100.00;97730.06;4903023;29;20112;-81
2022/02/07 13:16:57;;;;;;;17.40;2.47;;;;;;;5.88;100.00;97731.53;4899373;29;20053;-84
2022/02/07 13:19:25;;;;;;;20.75;2.58;;;;;;;6.50;100.00;97752.16;4899372;29;20053;-83
2022/02/07 13:21:53;;;;;;;21.77;2.90;;;;;;;6.54;100.00;97763.94;4878921;29;20055;-81
2022/02/07 13:24:30;;;;;;;25.05;3.40;;;;;;;6.38;100.00;97738.28;4895587;29;20045;-82
2022/02/07 13:26:58;;;;;;;26.75;3.10;;;;;;;6.27;100.00;97774.44;4896238;29;20056;-81
2022/02/07 13:29:29;;;;;;;30.58;3.10;;;;;;;6.11;100.00;97749.59;4882204;29;20060;-81
2022/02/07 13:32:04;;;;;;;23.88;3.25;;;;;;;6.48;100.00;97756.22;4899276;29;20081;-82
2022/02/07 13:34:33;;;;;;;35.07;3.83;;;;;;;6.26;100.00;97760.19;4883376;29;20048;-81
2022/02/07 13:37:14;;;;;;;29.98;3.35;;;;;;;6.21;100.00;97797.88;4900703;29;20080;-83
2022/02/07 13:39:57;;;;;;;27.30;3.13;;;;;;;6.26;100.00;97779.00;4889675;29;20131;-82
2022/02/07 13:42:29;;;;;;;32.65;3.20;;;;;;;6.47;100.00;97785.00;4898225;29;20037;-81
2022/02/07 13:44:58;;;;;;;34.10;3.75;;;;;;;6.37;100.00;97777.03;4895428;29;20047;-80
2022/02/07 13:47:26;;;;;;;30.35;4.10;;;;;;;6.11;100.00;97800.66;4906088;29;20044;-82
2022/02/07 13:49:58;;;;;;;23.67;3.20;;;;;;;5.81;100.00;97789.31;4897231;29;20167;-82
2022/02/07 13:52:31;;;;;;;26.98;3.20;;;;;;;5.88;100.00;97795.19;4917674;29;20441;-83
2022/02/07 13:55:37;;;;;;;27.73;2.80;;;;;;;6.06;100.00;97802.56;4916905;29;20104;-82
2022/02/07 13:58:10;;;;;;;25.50;3.30;;;;;;;6.43;100.00;97813.53;4882840;29;20048;-82
2022/02/07 14:00:41;;;;;;;29.38;3.13;;;;;;;6.67;100.00;97813.56;4900113;29;20045;-81
2022/02/07 14:03:10;;;;;;;21.83;2.75;;;;;;;6.47;100.00;97808.38;4886283;29;20088;-82
2022/02/07 14:05:44;;;;;;;22.63;2.95;;;;;;;6.69;100.00;97798.72;4889342;29;20085;-83
2022/02/07 14:08:12;;;;;;;19.42;2.53;;;;;;;6.46;100.00;97812.97;4900977;29;20048;-83
2022/02/07 14:10:41;;;;;;;23.13;3.15;;;;;;;6.02;100.00;97806.91;4884416;29;20059;-84
2022/02/07 14:13:11;;;;;;;20.90;2.67;;;;;;;5.91;100.00;97797.34;4899862;29;20048;-83
2022/02/07 14:15:40;;;;;;;25.92;2.88;;;;;;;5.77;100.00;97815.94;4901288;29;20053;-81
2022/02/07 14:18:10;;;;;;;27.92;3.28;;;;;;;5.65;100.00;97810.09;4903561;29;20173;-81
2022/02/07 14:20:37;;;;;;;30.77;3.40;;;;;;;5.29;100.00;97809.50;4901826;29;20150;-84
2022/02/07 14:23:11;;;;;;;25.92;2.97;;;;;;;4.93;100.00;97843.72;4901419;29;20045;-83
2022/02/07 14:25:39;;;;;;;33.38;2.58;;;;;;;4.74;100.00;97855.31;4899669;29;20614;-79
2022/02/07 14:28:05;;;;;;;37.13;3.90;;;;;;;4.41;100.00;97856.72;4900619;29;20056;-83